Time;durP1;ratioP1;P1;durP2;ratioP2;P2;SDS_P1;SDS_P2;PMS_P1;PMS_P2;Temp;Humidity;BMP_temperature;BMP_pressure;BME280_temperature;BME280_humidity;BME280_pressure;Samples;Min_cycle;Max_cycle;Signal;HPM_P1;HPM_P2
2022/03/22 00:00:32;;;;;;;21.45;18.08;;;;;;;;;;5040430;28;20045;-75
2022/03/22 00:02:58;;;;;;;21.20;16.88;;;;;;;;;;5025933;28;20090;-72
2022/03/22 00:05:24;;;;;;;19.45;16.92;;;;;;;;;;5039132;28;20226;-74
2022/03/22 00:07:50;;;;;;;25.40;17.13;;;;;;;;;;5039663;28;20028;-74
2022/03/22 00:10:16;;;;;;;18.95;16.75;;;;;;;;;;5043687;28;21240;-73
2022/03/22 00:12:42;;;;;;;19.00;16.80;;;;;;;;;;5042367;28;20117;-72
2022/03/22 00:15:08;;;;;;;20.27;17.45;;;;;;;;;;5040309;28;20087;-73
2022/03/22 00:17:34;;;;;;;20.40;17.85;;;;;;;;;;5039815;28;20107;-72
2022/03/22 00:20:00;;;;;;;28.02;18.15;;;;;;;;;;5042044;28;20037;-73
2022/03/22 00:22:27;;;;;;;24.77;17.23;;;;;;;;;;5038448;28;20115;-72
2022/03/22 00:24:53;;;;;;;23.55;18.15;;;;;;;;;;5040260;28;20065;-74
2022/03/22 00:27:19;;;;;;;23.00;17.95;;;;;;;;;;5043981;28;20043;-72
2022/03/22 00:29:45;;;;;;;22.88;17.70;;;;;;;;;;5042575;28;20037;-73
2022/03/22 00:32:11;;;;;;;23.25;17.33;;;;;;;;;;5038328;28;20043;-73
2022/03/22 00:34:44;;;;;;;24.23;17.52;;;;;;;;;;5041430;28;20033;-73
2022/03/22 00:37:14;;;;;;;22.75;17.45;;;;;;;;;;5045247;28;20305;-73
2022/03/22 00:39:44;;;;;;;22.65;16.67;;;;;;;;;;5037730;28;20044;-73
2022/03/22 00:42:12;;;;;;;23.55;18.35;;;;;;;;;;5041710;28;20040;-72
2022/03/22 00:44:38;;;;;;;21.83;18.58;;;;;;;;;;5041467;28;20037;-71
2022/03/22 00:47:08;;;;;;;24.17;17.67;;;;;;;;;;5038315;28;20036;-73
2022/03/22 00:49:36;;;;;;;19.95;17.05;;;;;;;;;;5042863;28;20123;-72
2022/03/22 00:52:04;;;;;;;27.42;17.65;;;;;;;;;;5036901;28;20278;-72
2022/03/22 00:54:32;;;;;;;22.03;17.70;;;;;;;;;;5036465;28;20037;-74
2022/03/22 00:56:58;;;;;;;19.80;16.98;;;;;;;;;;5041405;28;20701;-72
2022/03/22 01:02:08;;;;;;;22.55;17.10;;;;;;;;;;5038458;28;20280;-72
2022/03/22 01:04:35;;;;;;;21.33;17.45;;;;;;;;;;5037318;28;20047;-73
2022/03/22 01:07:04;;;;;;;26.90;17.98;;;;;;;;;;5037801;28;20113;-73
2022/03/22 01:09:29;;;;;;;25.38;18.13;;;;;;;;;;5041200;28;20072;-73
2022/03/22 01:11:57;;;;;;;24.55;17.55;;;;;;;;;;5042917;28;20496;-74
2022/03/22 01:14:25;;;;;;;23.90;18.45;;;;;;;;;;5039335;28;20117;-73
2022/03/22 01:16:52;;;;;;;23.73;17.83;;;;;;;;;;5037020;28;20443;-72
2022/03/22 01:19:21;;;;;;;23.30;18.02;;;;;;;;;;5040843;28;20874;-72
2022/03/22 01:21:47;;;;;;;26.90;18.30;;;;;;;;;;5042519;28;20041;-72
2022/03/22 01:24:13;;;;;;;23.40;18.05;;;;;;;;;;5035277;28;20144;-72
2022/03/22 01:26:41;;;;;;;24.77;17.58;;;;;;;;;;5041973;28;20037;-73
2022/03/22 01:29:07;;;;;;;31.80;19.60;;;;;;;;;;5041833;28;20060;-72
2022/03/22 01:31:34;;;;;;;29.77;18.48;;;;;;;;;;5037431;28;20052;-74
2022/03/22 01:34:00;;;;;;;23.85;17.77;;;;;;;;;;5037310;28;20042;-72
2022/03/22 01:36:26;;;;;;;24.70;18.38;;;;;;;;;;5043891;28;20037;-73
2022/03/22 01:38:52;;;;;;;22.17;16.58;;;;;;;;;;5040268;28;20044;-72
2022/03/22 01:41:18;;;;;;;25.58;18.55;;;;;;;;;;5038594;28;20033;-73
2022/03/22 01:43:44;;;;;;;25.92;17.60;;;;;;;;;;5036836;28;20395;-72
2022/03/22 01:46:12;;;;;;;23.15;17.75;;;;;;;;;;5039848;28;20064;-72
2022/03/22 01:48:37;;;;;;;24.10;18.13;;;;;;;;;;5035987;28;20559;-71
2022/03/22 01:51:03;;;;;;;23.10;17.38;;;;;;;;;;5040849;28;20093;-72
2022/03/22 01:53:30;;;;;;;19.95;17.77;;;;;;;;;;5040843;28;20507;-72
2022/03/22 01:55:57;;;;;;;19.05;16.63;;;;;;;;;;5038744;28;20080;-72
2022/03/22 01:58:24;;;;;;;19.95;13.70;;;;;;;;;;5038412;28;20030;-73
2022/03/22 02:05:51;;;;;;;19.92;16.88;;;;;;;;;;5039129;28;20072;-72
2022/03/22 02:06:23;;;;;;;24.65;17.27;;;;;;;;;;5043419;28;20480;-72
2022/03/22 02:08:48;;;;;;;19.00;16.25;;;;;;;;;;5042893;28;20076;-71
2022/03/22 02:11:14;;;;;;;21.17;17.20;;;;;;;;;;5043083;28;20458;-72
2022/03/22 02:13:39;;;;;;;22.13;17.30;;;;;;;;;;5046447;28;20036;-72
2022/03/22 02:16:05;;;;;;;23.70;17.63;;;;;;;;;;5041748;28;20060;-73
2022/03/22 02:18:31;;;;;;;22.55;17.50;;;;;;;;;;5043846;28;20037;-73
2022/03/22 02:20:59;;;;;;;23.58;18.42;;;;;;;;;;5047114;28;20315;-73
2022/03/22 02:23:33;;;;;;;24.00;18.10;;;;;;;;;;5044473;28;20048;-71
2022/03/22 02:25:59;;;;;;;23.20;17.60;;;;;;;;;;5046544;28;20479;-73
2022/03/22 02:28:24;;;;;;;24.92;18.02;;;;;;;;;;5044163;28;20040;-72
2022/03/22 02:30:50;;;;;;;20.73;16.75;;;;;;;;;;5045932;28;20121;-73
2022/03/22 02:33:16;;;;;;;24.55;17.33;;;;;;;;;;5047276;28;20067;-73
2022/03/22 02:35:41;;;;;;;22.90;17.58;;;;;;;;;;5048834;28;20044;-73
2022/03/22 02:38:08;;;;;;;20.52;16.65;;;;;;;;;;5047779;28;20041;-72
2022/03/22 02:40:33;;;;;;;21.50;16.77;;;;;;;;;;5045226;28;20055;-72
2022/03/22 02:43:00;;;;;;;24.17;17.50;;;;;;;;;;5046563;28;20045;-72
2022/03/22 02:45:26;;;;;;;23.70;17.50;;;;;;;;;;5048511;28;20029;-73
2022/03/22 02:47:52;;;;;;;23.92;17.77;;;;;;;;;;5046113;28;20514;-71
2022/03/22 02:50:21;;;;;;;25.60;16.88;;;;;;;;;;5047046;28;20060;-72
2022/03/22 02:52:47;;;;;;;18.42;15.95;;;;;;;;;;5048434;28;20376;-74
2022/03/22 02:55:13;;;;;;;23.05;16.02;;;;;;;;;;5048323;28;20043;-72
2022/03/22 02:57:40;;;;;;;18.70;16.30;;;;;;;;;;5048787;28;20071;-71
2022/03/22 03:00:08;;;;;;;22.42;17.10;;;;;;;;;;5043816;28;20520;-73
2022/03/22 03:02:47;;;;;;;22.50;16.08;;;;;;;;;;5047309;28;20040;-71
2022/03/22 03:05:13;;;;;;;24.90;17.98;;;;;;;;;;5048131;28;20260;-74
2022/03/22 03:07:39;;;;;;;27.92;17.67;;;;;;;;;;5046333;28;20037;-72
2022/03/22 03:10:06;;;;;;;19.48;16.63;;;;;;;;;;5048944;28;20044;-72
2022/03/22 03:12:33;;;;;;;23.33;17.08;;;;;;;;;;5046782;28;20069;-71
2022/03/22 03:14:58;;;;;;;23.42;17.48;;;;;;;;;;5044320;28;20029;-72
2022/03/22 03:17:24;;;;;;;20.35;17.05;;;;;;;;;;5046553;28;20040;-72
2022/03/22 03:19:49;;;;;;;21.30;16.33;;;;;;;;;;5044099;28;20043;-73
2022/03/22 03:22:15;;;;;;;26.73;18.30;;;;;;;;;;5044973;28;20323;-72
2022/03/22 03:24:41;;;;;;;21.20;17.13;;;;;;;;;;5047937;28;20400;-72
2022/03/22 03:27:06;;;;;;;25.17;17.23;;;;;;;;;;5045563;28;20029;-72
2022/03/22 03:29:32;;;;;;;20.80;17.40;;;;;;;;;;5047022;28;20041;-74
2022/03/22 03:31:58;;;;;;;23.50;17.17;;;;;;;;;;5046527;28;20032;-72
2022/03/22 03:34:23;;;;;;;20.45;17.05;;;;;;;;;;5044771;28;20041;-72
2022/03/22 03:36:49;;;;;;;22.52;17.52;;;;;;;;;;5037671;28;20095;-71
2022/03/22 03:39:15;;;;;;;25.38;16.67;;;;;;;;;;5045019;28;20040;-74
2022/03/22 03:41:54;;;;;;;22.75;17.27;;;;;;;;;;5045665;28;20044;-72
2022/03/22 03:47:16;;;;;;;17.38;15.50;;;;;;;;;;5041937;28;20037;-70
2022/03/22 03:49:50;;;;;;;24.25;17.88;;;;;;;;;;5047030;28;20045;-71
2022/03/22 03:52:18;;;;;;;24.00;17.73;;;;;;;;;;5049267;28;20116;-72
2022/03/22 03:54:45;;;;;;;21.88;17.13;;;;;;;;;;5043126;28;20040;-71
2022/03/22 03:57:11;;;;;;;20.42;17.55;;;;;;;;;;5047605;28;20116;-71
2022/03/22 03:59:38;;;;;;;22.38;18.02;;;;;;;;;;5047143;28;20504;-72
2022/03/22 04:02:08;;;;;;;24.02;18.33;;;;;;;;;;5042485;28;20389;-71
2022/03/22 04:04:38;;;;;;;20.02;17.38;;;;;;;;;;5041978;28;20036;-72
2022/03/22 04:07:06;;;;;;;19.35;16.52;;;;;;;;;;5045488;28;20047;-72
2022/03/22 04:09:33;;;;;;;19.35;17.27;;;;;;;;;;5047363;28;20059;-74
2022/03/22 04:11:59;;;;;;;19.85;17.52;;;;;;;;;;5048184;28;20036;-71
2022/03/22 04:14:25;;;;;;;28.92;17.60;;;;;;;;;;5045545;28;20384;-71
2022/03/22 04:16:51;;;;;;;25.65;19.42;;;;;;;;;;5039597;28;20049;-71
2022/03/22 04:19:17;;;;;;;25.73;17.52;;;;;;;;;;5043680;28;20032;-71
2022/03/22 04:21:44;;;;;;;32.33;18.08;;;;;;;;;;5044262;28;20040;-72
2022/03/22 04:24:11;;;;;;;21.50;17.67;;;;;;;;;;5046346;28;20545;-72
2022/03/22 04:26:40;;;;;;;28.42;18.50;;;;;;;;;;5044808;28;20124;-72
2022/03/22 04:32:41;;;;;;;23.80;19.35;;;;;;;;;;5046946;28;20037;-71
2022/03/22 04:34:43;;;;;;;23.80;18.50;;;;;;;;;;5042773;28;20204;-74
2022/03/22 04:37:12;;;;;;;19.20;15.85;;;;;;;;;;5045421;28;20061;-74
2022/03/22 04:39:40;;;;;;;30.80;17.30;;;;;;;;;;5043640;28;20036;-71
2022/03/22 04:42:06;;;;;;;23.20;17.30;;;;;;;;;;5047204;28;20109;-71
2022/03/22 04:44:33;;;;;;;22.75;17.70;;;;;;;;;;5044165;28;20037;-72
2022/03/22 04:46:59;;;;;;;24.67;17.50;;;;;;;;;;5046185;28;20067;-73
2022/03/22 04:49:26;;;;;;;26.23;20.42;;;;;;;;;;5047204;28;20494;-71
2022/03/22 04:57:22;;;;;;;28.77;19.30;;;;;;;;;;5043555;28;20057;-72
2022/03/22 04:59:48;;;;;;;27.85;18.98;;;;;;;;;;5043258;28;20037;-75
2022/03/22 05:02:14;;;;;;;27.30;18.67;;;;;;;;;;5044963;28;20045;-72
2022/03/22 05:04:40;;;;;;;29.48;20.23;;;;;;;;;;5040510;28;20037;-72
2022/03/22 05:07:06;;;;;;;40.00;24.58;;;;;;;;;;5045949;28;20407;-73
2022/03/22 05:09:31;;;;;;;28.45;21.58;;;;;;;;;;5047231;28;20116;-73
2022/03/22 05:11:59;;;;;;;29.98;21.33;;;;;;;;;;5046049;28;20037;-71
2022/03/22 05:14:24;;;;;;;21.88;19.30;;;;;;;;;;5044955;28;20041;-71
2022/03/22 05:16:51;;;;;;;26.27;19.02;;;;;;;;;;5044478;28;20411;-71
2022/03/22 05:19:18;;;;;;;29.42;19.17;;;;;;;;;;5046904;28;20402;-72
2022/03/22 05:21:44;;;;;;;26.77;20.63;;;;;;;;;;5041211;28;20076;-70
2022/03/22 05:24:11;;;;;;;24.65;19.77;;;;;;;;;;5042391;28;20025;-73
2022/03/22 05:26:37;;;;;;;26.48;19.27;;;;;;;;;;5045441;28;20041;-73
2022/03/22 05:29:04;;;;;;;25.63;19.40;;;;;;;;;;5047549;28;20519;-72
2022/03/22 05:31:31;;;;;;;29.63;20.83;;;;;;;;;;5043936;28;20045;-70
2022/03/22 05:33:58;;;;;;;27.83;20.02;;;;;;;;;;5045465;28;20052;-71
2022/03/22 05:36:24;;;;;;;24.23;18.73;;;;;;;;;;5040669;28;20503;-71
2022/03/22 05:38:49;;;;;;;22.60;19.45;;;;;;;;;;5047899;28;20091;-72
2022/03/22 05:41:15;;;;;;;22.52;18.70;;;;;;;;;;5044941;28;20040;-72
2022/03/22 05:43:41;;;;;;;26.70;19.52;;;;;;;;;;5045014;28;20397;-71
2022/03/22 05:46:08;;;;;;;25.63;18.90;;;;;;;;;;5044394;28;20681;-72
2022/03/22 05:48:34;;;;;;;26.98;21.35;;;;;;;;;;5043481;28;20048;-71
2022/03/22 05:50:59;;;;;;;26.63;18.20;;;;;;;;;;5049936;28;20033;-71
2022/03/22 05:53:25;;;;;;;23.45;19.13;;;;;;;;;;5050865;28;20090;-73
2022/03/22 05:55:51;;;;;;;26.58;20.38;;;;;;;;;;5046744;28;20045;-71
2022/03/22 05:58:16;;;;;;;21.38;18.60;;;;;;;;;;5050031;28;20033;-71
2022/03/22 06:00:43;;;;;;;32.70;20.05;;;;;;;;;;5043945;28;20503;-71
2022/03/22 06:03:09;;;;;;;24.42;19.23;;;;;;;;;;5049881;28;20033;-73
2022/03/22 06:05:34;;;;;;;28.50;20.20;;;;;;;;;;5047689;28;20059;-71
2022/03/22 06:08:01;;;;;;;23.50;19.30;;;;;;;;;;5047938;28;20041;-71
2022/03/22 06:10:28;;;;;;;23.55;18.80;;;;;;;;;;5048941;28;20033;-71
2022/03/22 06:12:55;;;;;;;24.30;19.38;;;;;;;;;;5046817;28;20238;-71
2022/03/22 06:15:26;;;;;;;27.17;20.80;;;;;;;;;;5049701;28;20037;-71
2022/03/22 06:17:51;;;;;;;21.90;18.75;;;;;;;;;;5052972;28;20458;-70
2022/03/22 06:20:19;;;;;;;22.73;18.48;;;;;;;;;;5045786;28;20128;-70
2022/03/22 06:22:45;;;;;;;26.83;18.17;;;;;;;;;;5049688;28;20037;-71
2022/03/22 06:25:12;;;;;;;23.50;19.05;;;;;;;;;;5048012;28;20040;-71
2022/03/22 06:27:38;;;;;;;23.58;18.95;;;;;;;;;;5050823;28;20111;-71
2022/03/22 06:30:05;;;;;;;23.02;18.30;;;;;;;;;;5049569;28;20128;-71
2022/03/22 06:32:31;;;;;;;22.63;19.20;;;;;;;;;;5049167;28;20033;-72
2022/03/22 06:34:57;;;;;;;27.58;20.08;;;;;;;;;;5046910;28;20035;-73
2022/03/22 06:37:22;;;;;;;24.38;18.42;;;;;;;;;;5045648;28;20120;-71
2022/03/22 06:39:48;;;;;;;27.45;19.83;;;;;;;;;;5045189;28;20064;-71
2022/03/22 06:42:14;;;;;;;28.13;20.15;;;;;;;;;;5050310;28;20040;-71
2022/03/22 06:44:40;;;;;;;27.42;20.17;;;;;;;;;;5046462;28;20083;-71
2022/03/22 06:47:06;;;;;;;22.60;20.05;;;;;;;;;;5037460;28;20484;-72
2022/03/22 06:49:31;;;;;;;57.38;35.50;;;;;;;;;;5050431;28;20115;-73
2022/03/22 06:51:57;;;;;;;163.75;71.65;;;;;;;;;;5048831;28;20045;-71
2022/03/22 06:54:23;;;;;;;30.98;20.55;;;;;;;;;;5046452;28;20365;-71
2022/03/22 06:56:48;;;;;;;24.95;19.50;;;;;;;;;;5047664;28;20102;-71
2022/03/22 06:59:14;;;;;;;28.42;19.55;;;;;;;;;;5048664;28;20029;-71
2022/03/22 07:01:40;;;;;;;20.60;18.02;;;;;;;;;;5042887;28;20029;-71
2022/03/22 07:04:05;;;;;;;43.72;27.95;;;;;;;;;;5047367;28;20029;-71
2022/03/22 07:06:31;;;;;;;23.48;18.83;;;;;;;;;;5048973;28;20032;-71
2022/03/22 07:08:57;;;;;;;36.03;26.20;;;;;;;;;;5046919;28;20037;-72
2022/03/22 07:14:07;;;;;;;25.98;18.42;;;;;;;;;;5048953;28;20029;-71
2022/03/22 07:16:33;;;;;;;25.98;18.55;;;;;;;;;;5048026;28;20445;-72
2022/03/22 07:18:58;;;;;;;24.50;20.60;;;;;;;;;;5046911;28;20033;-73
2022/03/22 07:21:24;;;;;;;26.52;19.88;;;;;;;;;;5041468;28;20073;-72
2022/03/22 07:23:49;;;;;;;26.55;19.98;;;;;;;;;;5048434;28;20123;-72
2022/03/22 07:26:16;;;;;;;23.42;20.52;;;;;;;;;;5045494;28;20029;-72
2022/03/22 07:28:42;;;;;;;25.70;21.02;;;;;;;;;;5045358;28;20041;-72
2022/03/22 07:31:07;;;;;;;26.52;21.60;;;;;;;;;;5048495;28;20039;-73
2022/03/22 07:33:33;;;;;;;23.45;20.95;;;;;;;;;;5048304;28;20048;-74
2022/03/22 07:35:58;;;;;;;29.50;22.98;;;;;;;;;;5047525;28;20033;-72
2022/03/22 07:38:24;;;;;;;24.23;20.88;;;;;;;;;;5048505;28;20032;-72
2022/03/22 07:40:50;;;;;;;26.23;21.90;;;;;;;;;;5043020;28;20087;-73
2022/03/22 07:43:15;;;;;;;25.40;21.05;;;;;;;;;;5041477;28;20127;-76
2022/03/22 07:45:41;;;;;;;25.42;22.58;;;;;;;;;;5046479;28;20406;-75
2022/03/22 07:48:07;;;;;;;25.27;21.77;;;;;;;;;;5046922;28;20029;-73
2022/03/22 07:53:17;;;;;;;27.90;21.58;;;;;;;;;;5045963;28;20033;-73
2022/03/22 07:55:43;;;;;;;22.50;20.20;;;;;;;;;;5045728;28;20059;-73
2022/03/22 07:58:10;;;;;;;29.08;21.85;;;;;;;;;;5047831;28;20045;-73
2022/03/22 08:00:38;;;;;;;25.10;22.33;;;;;;;;;;5045743;28;20049;-73
2022/03/22 08:03:05;;;;;;;27.25;21.88;;;;;;;;;;5042079;28;20064;-73
2022/03/22 08:05:32;;;;;;;22.50;20.05;;;;;;;;;;5045038;28;20434;-73
2022/03/22 08:07:59;;;;;;;24.45;20.02;;;;;;;;;;5043762;28;20036;-73
2022/03/22 08:10:25;;;;;;;25.27;22.02;;;;;;;;;;5046748;28;20630;-73
2022/03/22 08:12:51;;;;;;;22.90;20.58;;;;;;;;;;5048152;28;20123;-73
2022/03/22 08:15:17;;;;;;;28.58;23.30;;;;;;;;;;5047012;28;20041;-74
2022/03/22 08:17:43;;;;;;;36.63;32.08;;;;;;;;;;5048866;28;20400;-73
2022/03/22 08:20:11;;;;;;;24.65;21.95;;;;;;;;;;5045587;28;20052;-73
2022/03/22 08:22:49;;;;;;;27.40;22.88;;;;;;;;;;5048523;28;20029;-75
2022/03/22 08:25:16;;;;;;;25.00;21.23;;;;;;;;;;5045677;28;20056;-74
2022/03/22 08:27:42;;;;;;;23.80;21.40;;;;;;;;;;5048533;28;20290;-74
2022/03/22 08:30:09;;;;;;;23.15;20.92;;;;;;;;;;5046776;28;20047;-74
2022/03/22 08:32:34;;;;;;;29.30;20.80;;;;;;;;;;5048655;28;20073;-74
2022/03/22 08:35:01;;;;;;;23.65;20.27;;;;;;;;;;5048737;28;20065;-73
2022/03/22 08:37:26;;;;;;;23.67;21.13;;;;;;;;;;5048960;28;20033;-73
2022/03/22 08:39:52;;;;;;;23.73;21.05;;;;;;;;;;5046865;28;20056;-74
2022/03/22 08:42:17;;;;;;;25.83;21.38;;;;;;;;;;5043733;28;20036;-74
2022/03/22 08:44:44;;;;;;;37.83;21.15;;;;;;;;;;5046641;28;20037;-74
2022/03/22 08:47:10;;;;;;;32.05;21.80;;;;;;;;;;5048783;28;20048;-74
2022/03/22 08:49:35;;;;;;;30.40;22.40;;;;;;;;;;5041866;28;20036;-74
2022/03/22 08:52:01;;;;;;;30.73;22.25;;;;;;;;;;5046894;28;20465;-74
2022/03/22 08:54:27;;;;;;;32.00;21.30;;;;;;;;;;5047494;28;20024;-73
2022/03/22 08:56:53;;;;;;;24.88;21.83;;;;;;;;;;5046657;28;20094;-74
2022/03/22 08:59:18;;;;;;;25.02;20.90;;;;;;;;;;5046331;28;20025;-74
2022/03/22 09:01:45;;;;;;;31.67;21.35;;;;;;;;;;5048153;28;20044;-75
2022/03/22 09:06:54;;;;;;;24.02;21.30;;;;;;;;;;5047072;28;20052;-74
2022/03/22 09:09:20;;;;;;;23.50;20.63;;;;;;;;;;5047383;28;20102;-75
2022/03/22 09:11:46;;;;;;;26.38;21.55;;;;;;;;;;5048297;28;20064;-73
2022/03/22 09:14:11;;;;;;;27.55;21.50;;;;;;;;;;5048244;28;20099;-73
2022/03/22 09:16:38;;;;;;;25.80;21.67;;;;;;;;;;5046385;28;20068;-73
2022/03/22 09:19:04;;;;;;;25.73;21.55;;;;;;;;;;5046925;28;20120;-73
2022/03/22 09:21:30;;;;;;;24.00;20.38;;;;;;;;;;5038840;28;20041;-74
2022/03/22 09:23:56;;;;;;;27.90;22.08;;;;;;;;;;5043620;28;20102;-74
2022/03/22 09:26:21;;;;;;;23.38;20.98;;;;;;;;;;5051684;28;20488;-73
2022/03/22 09:28:52;;;;;;;23.85;20.90;;;;;;;;;;5043893;28;20044;-73
2022/03/22 09:31:20;;;;;;;23.70;21.15;;;;;;;;;;5046503;28;20491;-74
2022/03/22 09:33:47;;;;;;;31.10;23.95;;;;;;;;;;5040314;28;20383;-74
2022/03/22 09:36:12;;;;;;;23.98;21.30;;;;;;;;;;5045226;28;20037;-73
2022/03/22 09:38:38;;;;;;;23.15;20.70;;;;;;;;;;5041907;28;20029;-73
2022/03/22 09:41:04;;;;;;;23.92;20.85;;;;;;;;;;5047837;28;20032;-74
2022/03/22 09:43:30;;;;;;;27.58;21.50;;;;;;;;;;5044274;28;20033;-73
2022/03/22 09:45:57;;;;;;;27.38;21.45;;;;;;;;;;5046007;28;20053;-74
2022/03/22 09:48:23;;;;;;;22.80;20.33;;;;;;;;;;5043445;28;20568;-73
2022/03/22 09:53:33;;;;;;;23.60;20.52;;;;;;;;;;5046697;28;20476;-74
2022/03/22 09:55:59;;;;;;;27.52;21.15;;;;;;;;;;5041568;28;20037;-74
2022/03/22 09:58:24;;;;;;;26.58;21.98;;;;;;;;;;5043089;28;20389;-75
2022/03/22 10:00:50;;;;;;;25.27;22.45;;;;;;;;;;5047977;28;20028;-75
2022/03/22 11:36:43;;;;;;;26.83;23.88;;;;;;;;;;5112909;27;20039;-74
2022/03/22 11:39:14;;;;;;;27.55;24.65;;;;;;;;;;5010120;28;20091;-74
2022/03/22 11:44:39;;;;;;;27.00;24.25;;;;;;;;;;5044837;28;20045;-74
2022/03/22 11:47:05;;;;;;;29.35;24.70;;;;;;;;;;5029783;22;20051;-71
2022/03/22 11:49:45;;;;;;;27.58;24.52;;;;;;;;;;5103498;28;20443;-71
2022/03/22 11:52:12;;;;;;;26.40;23.63;;;;;;;;;;5097732;28;20465;-71
2022/03/22 11:54:38;;;;;;;24.85;22.40;;;;;;;;;;5098422;28;20189;-71
2022/03/22 11:57:05;;;;;;;25.63;22.92;;;;;;;;;;5099210;28;20455;-71
2022/03/22 11:59:43;;;;;;;25.02;22.52;;;;;;;;;;5083247;28;20270;-70
2022/03/22 12:02:17;;;;;;;27.00;24.00;;;;;;;;;;5080150;28;20036;-71
2022/03/22 12:04:52;;;;;;;26.13;23.70;;;;;;;;;;5080735;28;20124;-71
2022/03/22 12:07:29;;;;;;;27.52;24.50;;;;;;;;;;5077626;28;20462;-71
2022/03/22 12:10:12;;;;;;;27.60;24.48;;;;;;;;;;5073803;28;20040;-71
2022/03/22 12:12:40;;;;;;;27.67;24.88;;;;;;;;;;5077973;28;20418;-72
2022/03/22 12:15:08;;;;;;;28.05;24.98;;;;;;;;;;5079133;28;20032;-71
2022/03/22 12:17:35;;;;;;;28.20;25.27;;;;;;;;;;5082554;28;20071;-72
2022/03/22 12:20:11;;;;;;;29.23;25.83;;;;;;;;;;5081055;28;20056;-70
2022/03/22 12:22:43;;;;;;;28.88;25.48;;;;;;;;;;5083383;28;20441;-71
2022/03/22 12:25:15;;;;;;;29.92;26.73;;;;;;;;;;5083366;28;20036;-72
2022/03/22 12:27:50;;;;;;;27.80;25.02;;;;;;;;;;5081153;28;20047;-71
2022/03/22 12:30:17;;;;;;;30.92;26.52;;;;;;;;;;5076862;28;20070;-71
2022/03/22 12:32:44;;;;;;;28.25;25.50;;;;;;;;;;5076118;28;20126;-72
2022/03/22 12:35:12;;;;;;;31.25;27.83;;;;;;;;;;5076214;28;20071;-70
2022/03/22 12:37:38;;;;;;;29.38;26.58;;;;;;;;;;5079810;28;20174;-71
2022/03/22 12:40:04;;;;;;;30.52;27.20;;;;;;;;;;5082357;28;20509;-71
2022/03/22 12:42:31;;;;;;;29.33;26.25;;;;;;;;;;5083188;28;20039;-72
2022/03/22 12:44:58;;;;;;;29.60;26.70;;;;;;;;;;5069880;28;20419;-71
2022/03/22 12:47:24;;;;;;;30.23;27.13;;;;;;;;;;5068271;28;20036;-71
2022/03/22 12:49:49;;;;;;;32.20;28.90;;;;;;;;;;5069019;28;20420;-71
2022/03/22 12:52:15;;;;;;;31.33;28.10;;;;;;;;;;5065007;28;20111;-71
2022/03/22 12:54:42;;;;;;;33.28;28.88;;;;;;;;;;5061968;28;20057;-71
2022/03/22 12:57:13;;;;;;;31.48;28.08;;;;;;;;;;5067165;28;20043;-71
2022/03/22 12:59:40;;;;;;;30.30;27.20;;;;;;;;;;5066167;28;20043;-71
2022/03/22 13:02:06;;;;;;;29.80;26.90;;;;;;;;;;5062507;28;20036;-71
2022/03/22 13:04:46;;;;;;;28.88;25.98;;;;;;;;;;5068679;28;20051;-72
2022/03/22 13:07:13;;;;;;;30.00;26.70;;;;;;;;;;5072492;28;20032;-71
2022/03/22 13:12:24;;;;;;;29.30;26.58;;;;;;;;;;5078437;28;20032;-71
2022/03/22 13:15:06;;;;;;;29.63;26.65;;;;;;;;;;5077437;28;20182;-71
2022/03/22 13:17:36;;;;;;;29.83;26.52;;;;;;;;;;5077714;28;20048;-70
2022/03/22 13:20:11;;;;;;;27.73;25.05;;;;;;;;;;5067521;28;20093;-71
2022/03/22 13:22:51;;;;;;;29.05;26.10;;;;;;;;;;5062009;28;20078;-71
2022/03/22 13:25:18;;;;;;;30.00;26.85;;;;;;;;;;5064164;28;20246;-70
2022/03/22 13:27:53;;;;;;;29.90;26.85;;;;;;;;;;5062160;28;20059;-71
2022/03/22 13:30:20;;;;;;;27.25;24.85;;;;;;;;;;5069871;28;20390;-71
2022/03/22 13:32:46;;;;;;;29.33;26.33;;;;;;;;;;5066970;28;20074;-71
2022/03/22 13:35:12;;;;;;;29.25;26.17;;;;;;;;;;5062559;28;20040;-71
2022/03/22 13:37:47;;;;;;;28.45;25.83;;;;;;;;;;5057547;28;20190;-71
2022/03/22 13:40:13;;;;;;;28.33;25.75;;;;;;;;;;5063335;28;20132;-71
2022/03/22 13:43:09;;;;;;;29.42;26.45;;;;;;;;;;5059036;28;20036;-71
2022/03/22 13:45:36;;;;;;;29.63;26.70;;;;;;;;;;5061169;28;20073;-71
2022/03/22 13:48:10;;;;;;;30.17;26.60;;;;;;;;;;5064336;28;20036;-71
2022/03/22 13:50:36;;;;;;;29.83;26.63;;;;;;;;;;5065912;28;20043;-71
2022/03/22 13:53:11;;;;;;;29.77;26.05;;;;;;;;;;5066323;28;20028;-70
2022/03/22 13:55:39;;;;;;;28.70;26.05;;;;;;;;;;5061232;28;20043;-71
2022/03/22 13:58:12;;;;;;;28.90;26.13;;;;;;;;;;5064732;28;20028;-71
2022/03/22 14:00:43;;;;;;;28.10;25.30;;;;;;;;;;5055158;28;20362;-71
2022/03/22 14:03:14;;;;;;;28.33;25.63;;;;;;;;;;5062028;28;20041;-71
2022/03/22 14:05:42;;;;;;;29.65;26.40;;;;;;;;;;5064031;28;20592;-71
2022/03/22 14:08:09;;;;;;;28.77;25.70;;;;;;;;;;5061666;28;20043;-71
2022/03/22 14:10:35;;;;;;;28.52;25.75;;;;;;;;;;5068023;28;20052;-71
2022/03/22 14:13:02;;;;;;;26.77;24.10;;;;;;;;;;5062393;28;20037;-72
2022/03/22 14:15:28;;;;;;;28.02;25.48;;;;;;;;;;5066616;28;20060;-71
2022/03/22 14:17:54;;;;;;;27.65;24.95;;;;;;;;;;5063342;28;20739;-72
2022/03/22 14:20:21;;;;;;;27.40;24.70;;;;;;;;;;5060117;28;20052;-71
2022/03/22 14:22:48;;;;;;;27.13;24.30;;;;;;;;;;5064745;28;20036;-71
2022/03/22 14:25:15;;;;;;;27.27;24.35;;;;;;;;;;5059797;28;20040;-71
2022/03/22 14:27:41;;;;;;;27.85;25.15;;;;;;;;;;5066358;28;20028;-71
2022/03/22 14:30:14;;;;;;;27.98;24.98;;;;;;;;;;5063277;28;20041;-71
2022/03/22 14:32:45;;;;;;;26.27;22.95;;;;;;;;;;5061627;28;20060;-71
2022/03/22 14:37:56;;;;;;;24.75;22.17;;;;;;;;;;5066082;28;20294;-71
2022/03/22 14:40:23;;;;;;;25.13;22.55;;;;;;;;;;5062797;28;20119;-71
2022/03/22 14:42:50;;;;;;;25.52;23.02;;;;;;;;;;5061983;28;20415;-71
2022/03/22 14:45:16;;;;;;;28.80;24.33;;;;;;;;;;5065471;28;20364;-71
2022/03/22 14:47:42;;;;;;;26.85;23.23;;;;;;;;;;5059077;28;20138;-71
2022/03/22 14:50:08;;;;;;;24.98;22.73;;;;;;;;;;5060027;28;20123;-70
2022/03/22 14:55:21;;;;;;;24.80;22.55;;;;;;;;;;5060264;28;20051;-71
2022/03/22 15:00:30;;;;;;;29.67;23.02;;;;;;;;;;5057917;28;20106;-71
2022/03/22 15:02:56;;;;;;;24.73;22.27;;;;;;;;;;5065804;28;20046;-71
2022/03/22 15:05:33;;;;;;;25.85;22.50;;;;;;;;;;5062664;28;20043;-71
2022/03/22 15:08:09;;;;;;;26.13;23.40;;;;;;;;;;5058862;28;20032;-71
2022/03/22 15:10:39;;;;;;;24.58;22.08;;;;;;;;;;5053107;28;20457;-71
2022/03/22 15:13:07;;;;;;;24.92;22.38;;;;;;;;;;5064083;28;20467;-70
2022/03/22 15:15:34;;;;;;;25.17;22.65;;;;;;;;;;5063969;28;20028;-71
2022/03/22 15:18:01;;;;;;;24.15;21.70;;;;;;;;;;5061327;28;20033;-71
2022/03/22 15:20:27;;;;;;;23.60;21.15;;;;;;;;;;5063849;28;20082;-70
2022/03/22 15:22:53;;;;;;;22.80;20.70;;;;;;;;;;5057109;28;20045;-72
2022/03/22 15:25:18;;;;;;;23.63;20.98;;;;;;;;;;5062397;28;20078;-71
2022/03/22 15:27:44;;;;;;;24.25;21.95;;;;;;;;;;5063162;28;20062;-71
2022/03/22 15:30:10;;;;;;;24.48;22.30;;;;;;;;;;5062377;28;20058;-71
2022/03/22 15:32:36;;;;;;;23.88;21.50;;;;;;;;;;5060565;28;20119;-71
2022/03/22 15:35:07;;;;;;;24.13;22.02;;;;;;;;;;5068349;28;20032;-71
2022/03/22 15:37:33;;;;;;;24.30;21.80;;;;;;;;;;5054701;28;20482;-71
2022/03/22 15:39:59;;;;;;;22.90;20.90;;;;;;;;;;5064377;28;20379;-71
2022/03/22 15:42:26;;;;;;;24.08;21.63;;;;;;;;;;5064026;28;20050;-71
2022/03/22 15:44:52;;;;;;;24.27;21.77;;;;;;;;;;5060188;28;20213;-72
2022/03/22 15:47:18;;;;;;;23.70;21.48;;;;;;;;;;5063865;28;20570;-71
2022/03/22 15:49:44;;;;;;;23.63;21.40;;;;;;;;;;5061866;28;20040;-70
2022/03/22 15:52:09;;;;;;;23.45;21.30;;;;;;;;;;5065617;28;20039;-71
2022/03/22 15:54:37;;;;;;;22.42;20.33;;;;;;;;;;5060340;28;20033;-71
2022/03/22 15:57:04;;;;;;;22.95;20.75;;;;;;;;;;5059024;28;20040;-71
2022/03/22 15:59:30;;;;;;;24.10;21.52;;;;;;;;;;5063173;28;20505;-71
2022/03/22 16:01:55;;;;;;;23.20;20.90;;;;;;;;;;5062645;28;20043;-71
2022/03/22 16:04:21;;;;;;;22.67;20.33;;;;;;;;;;5057841;28;20531;-71
2022/03/22 16:06:47;;;;;;;23.27;20.95;;;;;;;;;;5061738;28;20040;-71
2022/03/22 16:09:16;;;;;;;23.10;20.75;;;;;;;;;;5062537;28;20530;-72
2022/03/22 16:11:45;;;;;;;23.77;21.38;;;;;;;;;;5062054;28;20028;-71
2022/03/22 16:14:12;;;;;;;22.27;20.27;;;;;;;;;;5062249;28;20577;-71
2022/03/22 16:16:40;;;;;;;22.75;20.27;;;;;;;;;;5065249;28;20176;-71
2022/03/22 16:19:06;;;;;;;24.63;22.40;;;;;;;;;;5063679;28;20028;-71
2022/03/22 16:21:32;;;;;;;26.60;23.50;;;;;;;;;;5065286;28;20123;-71
2022/03/22 16:23:59;;;;;;;26.13;23.17;;;;;;;;;;5067450;28;20036;-71
2022/03/22 16:26:27;;;;;;;26.13;23.45;;;;;;;;;;5066301;28;20039;-71
2022/03/22 16:28:54;;;;;;;26.10;23.52;;;;;;;;;;5065111;28;20036;-72
2022/03/22 16:31:19;;;;;;;27.13;24.23;;;;;;;;;;5060683;28;20522;-71